Terminal Aerodrome Forecast
Issued by NWS Portland, OR

Home | Current Version | Previous Version | Text Only | Print | Product List | Glossary On
Versions: 1 2 3 4 5 6 7 8 9 10 11 12 13 14 15 16 17 18 19 20 21 22 23 24 25 26
000
FTUS46 KPQR 311530 AAC
TAFTTD
TAF AMD
KTTD 311530Z 3116/0112 26008KT 5SM -RA BR BKN010 OVC020
     FM311700 17003KT P6SM -RA SCT035 BKN045 OVC060
     FM311800 15005KT P6SM VCSH OVC080
     FM010000 00000KT P6SM VCSH BKN100=

USA.gov is the U.S. government's official web portal to all federal, state and local government web resources and services.